sensor_id;sensor_type;location;lat;lon;timestamp;pressure;altitude;pressure_sealevel;temperature;humidity
67341;BME280;54227;45.198;5.732;2022-08-19T00:01:36;98827.81;;;28.89;39.45
67341;BME280;54227;45.198;5.732;2022-08-19T00:04:05;98826.94;;;28.92;39.77
67341;BME280;54227;45.198;5.732;2022-08-19T00:06:30;98820.53;;;28.92;39.56
67341;BME280;54227;45.198;5.732;2022-08-19T00:08:58;98816.56;;;28.89;39.53
67341;BME280;54227;45.198;5.732;2022-08-19T00:11:25;98818.50;;;28.92;39.55
67341;BME280;54227;45.198;5.732;2022-08-19T00:13:55;98806.88;;;28.90;39.67
67341;BME280;54227;45.198;5.732;2022-08-19T00:16:22;98815.69;;;28.92;39.41
67341;BME280;54227;45.198;5.732;2022-08-19T00:18:48;98813.31;;;28.91;39.49
67341;BME280;54227;45.198;5.732;2022-08-19T00:21:14;98817.72;;;28.92;39.49
67341;BME280;54227;45.198;5.732;2022-08-19T00:23:41;98825.38;;;28.91;39.56
67341;BME280;54227;45.198;5.732;2022-08-19T00:26:09;98824.13;;;28.92;39.65
67341;BME280;54227;45.198;5.732;2022-08-19T00:28:35;98830.22;;;28.91;39.51
67341;BME280;54227;45.198;5.732;2022-08-19T00:31:03;98831.78;;;28.92;39.73
67341;BME280;54227;45.198;5.732;2022-08-19T00:33:30;98832.56;;;28.92;39.74
67341;BME280;54227;45.198;5.732;2022-08-19T00:36:01;98834.16;;;28.93;39.66
67341;BME280;54227;45.198;5.732;2022-08-19T00:38:29;98830.22;;;28.91;39.55
67341;BME280;54227;45.198;5.732;2022-08-19T00:40:55;98842.59;;;28.93;39.58
67341;BME280;54227;45.198;5.732;2022-08-19T00:43:22;98839.78;;;28.93;39.70
67341;BME280;54227;45.198;5.732;2022-08-19T00:45:48;98837.84;;;28.90;39.92
67341;BME280;54227;45.198;5.732;2022-08-19T00:48:16;98836.97;;;28.93;39.49
67341;BME280;54227;45.198;5.732;2022-08-19T00:50:42;98834.97;;;28.94;39.51
67341;BME280;54227;45.198;5.732;2022-08-19T00:53:15;98834.59;;;28.92;39.73
67341;BME280;54227;45.198;5.732;2022-08-19T00:55:44;98834.16;;;28.93;39.62
67341;BME280;54227;45.198;5.732;2022-08-19T00:58:14;98831.34;;;28.93;39.66
67341;BME280;54227;45.198;5.732;2022-08-19T01:00:40;98821.31;;;28.92;39.48
67341;BME280;54227;45.198;5.732;2022-08-19T01:03:09;98826.94;;;28.92;39.67
67341;BME280;54227;45.198;5.732;2022-08-19T01:05:35;98820.06;;;28.93;39.50
67341;BME280;54227;45.198;5.732;2022-08-19T01:08:03;98819.28;;;28.93;39.76
67341;BME280;54227;45.198;5.732;2022-08-19T01:10:33;98814.09;;;28.91;39.55
67341;BME280;54227;45.198;5.732;2022-08-19T01:13:01;98818.06;;;28.94;39.48
67341;BME280;54227;45.198;5.732;2022-08-19T01:15:34;98814.91;;;28.92;39.62
67341;BME280;54227;45.198;5.732;2022-08-19T01:18:04;98809.63;;;28.94;39.39
67341;BME280;54227;45.198;5.732;2022-08-19T01:20:31;98808.03;;;28.93;39.54
67341;BME280;54227;45.198;5.732;2022-08-19T01:22:58;98808.81;;;28.93;39.63
67341;BME280;54227;45.198;5.732;2022-08-19T01:25:30;98806.44;;;28.92;39.66
67341;BME280;54227;45.198;5.732;2022-08-19T01:27:57;98804.41;;;28.92;39.75
67341;BME280;54227;45.198;5.732;2022-08-19T01:30:31;98800.81;;;28.92;39.60
67341;BME280;54227;45.198;5.732;2022-08-19T01:32:57;98794.41;;;28.91;39.64
67341;BME280;54227;45.198;5.732;2022-08-19T01:35:28;98796.34;;;28.94;39.84
67341;BME280;54227;45.198;5.732;2022-08-19T01:37:58;98801.19;;;28.94;39.70
67341;BME280;54227;45.198;5.732;2022-08-19T01:40:27;98800.38;;;28.93;39.63
67341;BME280;54227;45.198;5.732;2022-08-19T01:42:54;98797.13;;;28.95;39.73
67341;BME280;54227;45.198;5.732;2022-08-19T01:45:21;98801.97;;;28.94;39.63
67341;BME280;54227;45.198;5.732;2022-08-19T01:47:47;98803.19;;;28.93;39.67
67341;BME280;54227;45.198;5.732;2022-08-19T01:50:13;98802.41;;;28.93;39.46
67341;BME280;54227;45.198;5.732;2022-08-19T01:52:40;98807.25;;;28.92;39.56
67341;BME280;54227;45.198;5.732;2022-08-19T01:55:09;98806.00;;;28.93;39.55
67341;BME280;54227;45.198;5.732;2022-08-19T01:57:34;98808.03;;;28.93;39.56
67341;BME280;54227;45.198;5.732;2022-08-19T02:00:00;98801.97;;;28.94;39.73
67341;BME280;54227;45.198;5.732;2022-08-19T02:02:29;98807.59;;;28.94;39.81
67341;BME280;54227;45.198;5.732;2022-08-19T02:04:55;98813.66;;;28.93;39.61
67341;BME280;54227;45.198;5.732;2022-08-19T02:07:20;98816.84;;;28.95;39.83
67341;BME280;54227;45.198;5.732;2022-08-19T02:09:47;98818.88;;;28.94;39.85
67341;BME280;54227;45.198;5.732;2022-08-19T02:12:13;98815.25;;;28.94;39.93
67341;BME280;54227;45.198;5.732;2022-08-19T02:14:39;98804.41;;;28.92;39.77
67341;BME280;54227;45.198;5.732;2022-08-19T02:17:05;98814.03;;;28.95;39.64
67341;BME280;54227;45.198;5.732;2022-08-19T02:19:31;98812.00;;;28.95;39.98
67341;BME280;54227;45.198;5.732;2022-08-19T02:21:58;98804.00;;;28.94;39.86
67341;BME280;54227;45.198;5.732;2022-08-19T02:24:24;98803.56;;;28.95;39.56
67341;BME280;54227;45.198;5.732;2022-08-19T02:26:49;98801.97;;;28.94;39.83
67341;BME280;54227;45.198;5.732;2022-08-19T02:29:15;98809.19;;;28.95;39.71
67341;BME280;54227;45.198;5.732;2022-08-19T02:31:40;98811.22;;;28.95;39.70
67341;BME280;54227;45.198;5.732;2022-08-19T02:34:05;98807.59;;;28.94;39.80
67341;BME280;54227;45.198;5.732;2022-08-19T02:36:31;98818.88;;;28.94;39.57
67341;BME280;54227;45.198;5.732;2022-08-19T02:38:56;98827.66;;;28.96;39.79
67341;BME280;54227;45.198;5.732;2022-08-19T02:41:30;98830.13;;;28.94;39.88
67341;BME280;54227;45.198;5.732;2022-08-19T02:43:58;98832.94;;;28.94;39.80
67341;BME280;54227;45.198;5.732;2022-08-19T02:46:27;98831.69;;;28.95;39.91
67341;BME280;54227;45.198;5.732;2022-08-19T02:48:55;98832.50;;;28.96;39.81
67341;BME280;54227;45.198;5.732;2022-08-19T02:51:25;98834.16;;;28.93;39.95
67341;BME280;54227;45.198;5.732;2022-08-19T02:53:51;98823.72;;;28.94;39.76
67341;BME280;54227;45.198;5.732;2022-08-19T02:56:17;98824.56;;;28.91;39.86
67341;BME280;54227;45.198;5.732;2022-08-19T02:58:43;98824.84;;;28.96;39.70
67341;BME280;54227;45.198;5.732;2022-08-19T03:01:09;98833.28;;;28.96;39.86
67341;BME280;54227;45.198;5.732;2022-08-19T03:03:35;98827.31;;;28.94;39.91
67341;BME280;54227;45.198;5.732;2022-08-19T03:06:07;98836.53;;;28.95;39.61
67341;BME280;54227;45.198;5.732;2022-08-19T03:08:33;98838.91;;;28.96;39.96
67341;BME280;54227;45.198;5.732;2022-08-19T03:10:58;98842.97;;;28.95;39.92
67341;BME280;54227;45.198;5.732;2022-08-19T03:13:24;98836.09;;;28.96;39.82
67341;BME280;54227;45.198;5.732;2022-08-19T03:15:50;98846.56;;;28.96;39.94
67341;BME280;54227;45.198;5.732;2022-08-19T03:18:16;98839.69;;;28.97;39.70
67341;BME280;54227;45.198;5.732;2022-08-19T03:20:47;98841.72;;;28.96;39.82
67341;BME280;54227;45.198;5.732;2022-08-19T03:23:14;98847.34;;;28.96;39.93
67341;BME280;54227;45.198;5.732;2022-08-19T03:25:42;98843.75;;;28.96;39.83
67341;BME280;54227;45.198;5.732;2022-08-19T03:28:09;98851.41;;;28.95;39.70
67341;BME280;54227;45.198;5.732;2022-08-19T03:30:35;98857.84;;;28.96;39.84
67341;BME280;54227;45.198;5.732;2022-08-19T03:33:01;98855.81;;;28.96;39.79
67341;BME280;54227;45.198;5.732;2022-08-19T03:35:27;98851.03;;;28.93;39.77
67341;BME280;54227;45.198;5.732;2022-08-19T03:37:52;98855.09;;;28.92;39.61
67341;BME280;54227;45.198;5.732;2022-08-19T03:40:18;98862.66;;;28.95;39.89
67341;BME280;54227;45.198;5.732;2022-08-19T03:42:44;98864.25;;;28.96;39.86
67341;BME280;54227;45.198;5.732;2022-08-19T03:45:11;98869.53;;;28.94;40.04
67341;BME280;54227;45.198;5.732;2022-08-19T03:47:36;98879.91;;;28.97;39.70
67341;BME280;54227;45.198;5.732;2022-08-19T03:50:03;98871.56;;;28.94;39.88
67341;BME280;54227;45.198;5.732;2022-08-19T03:52:29;98877.53;;;28.96;39.80
67341;BME280;54227;45.198;5.732;2022-08-19T03:54:55;98884.75;;;28.97;39.86
67341;BME280;54227;45.198;5.732;2022-08-19T03:57:20;98879.56;;;28.95;39.89
67341;BME280;54227;45.198;5.732;2022-08-19T03:59:46;98883.97;;;28.96;39.93
67341;BME280;54227;45.198;5.732;2022-08-19T04:02:12;98879.13;;;28.97;39.79
67341;BME280;54227;45.198;5.732;2022-08-19T04:04:42;98881.16;;;28.96;39.88
67341;BME280;54227;45.198;5.732;2022-08-19T04:07:09;98881.94;;;28.97;39.77
67341;BME280;54227;45.198;5.732;2022-08-19T04:09:36;98893.97;;;28.97;39.75
67341;BME280;54227;45.198;5.732;2022-08-19T04:12:03;98895.22;;;28.96;39.78
67341;BME280;54227;45.198;5.732;2022-08-19T04:14:31;98905.25;;;28.97;39.98
67341;BME280;54227;45.198;5.732;2022-08-19T04:16:58;98904.47;;;28.97;39.99
67341;BME280;54227;45.198;5.732;2022-08-19T04:19:24;98905.69;;;28.96;39.99
67341;BME280;54227;45.198;5.732;2022-08-19T04:21:53;98908.06;;;28.97;39.84
67341;BME280;54227;45.198;5.732;2022-08-19T04:24:19;98913.69;;;28.97;40.03
67341;BME280;54227;45.198;5.732;2022-08-19T04:26:47;98916.97;;;28.96;40.02
67341;BME280;54227;45.198;5.732;2022-08-19T04:29:17;98919.31;;;28.97;39.86
67341;BME280;54227;45.198;5.732;2022-08-19T04:31:44;98922.59;;;28.96;39.80
67341;BME280;54227;45.198;5.732;2022-08-19T04:34:12;98923.38;;;28.96;40.10
67341;BME280;54227;45.198;5.732;2022-08-19T04:36:40;98916.16;;;28.95;40.04
67341;BME280;54227;45.198;5.732;2022-08-19T04:39:12;98918.53;;;28.97;39.93
67341;BME280;54227;45.198;5.732;2022-08-19T04:41:38;98926.53;;;28.98;40.04
67341;BME280;54227;45.198;5.732;2022-08-19T04:44:22;98923.38;;;28.96;40.04
67341;BME280;54227;45.198;5.732;2022-08-19T04:46:49;98936.22;;;28.97;40.00
67341;BME280;54227;45.198;5.732;2022-08-19T04:49:16;98945.13;;;28.96;40.21
67341;BME280;54227;45.198;5.732;2022-08-19T04:51:43;98941.41;;;28.99;39.71
67341;BME280;54227;45.198;5.732;2022-08-19T04:54:09;98946.59;;;29.00;39.88
67341;BME280;54227;45.198;5.732;2022-08-19T04:56:35;98942.56;;;29.01;39.96
67341;BME280;54227;45.198;5.732;2022-08-19T04:59:00;98945.38;;;29.01;39.85
67341;BME280;54227;45.198;5.732;2022-08-19T05:01:31;98945.38;;;29.01;40.05
67341;BME280;54227;45.198;5.732;2022-08-19T05:03:59;98936.94;;;29.01;39.73
67341;BME280;54227;45.198;5.732;2022-08-19T05:06:26;98951.69;;;29.05;40.41
67341;BME280;54227;45.198;5.732;2022-08-19T05:08:52;98953.38;;;29.03;40.59
67341;BME280;54227;45.198;5.732;2022-08-19T05:11:27;98967.78;;;29.05;40.67
67341;BME280;54227;45.198;5.732;2022-08-19T05:13:54;98959.69;;;29.07;40.67
67341;BME280;54227;45.198;5.732;2022-08-19T05:16:21;98970.16;;;29.06;40.75
67341;BME280;54227;45.198;5.732;2022-08-19T05:18:48;98972.63;;;29.04;40.71
67341;BME280;54227;45.198;5.732;2022-08-19T05:21:33;98977.75;;;29.10;40.86
67341;BME280;54227;45.198;5.732;2022-08-19T05:24:19;98976.16;;;29.09;40.70
67341;BME280;54227;45.198;5.732;2022-08-19T05:26:47;98980.19;;;29.08;40.84
67341;BME280;54227;45.198;5.732;2022-08-19T05:29:15;98992.63;;;29.10;40.61
67341;BME280;54227;45.198;5.732;2022-08-19T05:31:42;98991.38;;;29.11;40.89
67341;BME280;54227;45.198;5.732;2022-08-19T05:34:08;98997.00;;;29.11;40.79
67341;BME280;54227;45.198;5.732;2022-08-19T05:36:40;98989.81;;;29.10;40.61
67341;BME280;54227;45.198;5.732;2022-08-19T05:39:07;98980.19;;;29.08;40.96
67341;BME280;54227;45.198;5.732;2022-08-19T05:41:33;98990.94;;;29.13;40.63
67341;BME280;54227;45.198;5.732;2022-08-19T05:44:02;98984.06;;;29.14;40.68
67341;BME280;54227;45.198;5.732;2022-08-19T05:46:32;98988.44;;;29.15;40.51
67341;BME280;54227;45.198;5.732;2022-08-19T05:48:57;98990.47;;;29.14;40.47
67341;BME280;54227;45.198;5.732;2022-08-19T05:51:24;98990.06;;;29.16;40.71
67341;BME280;54227;45.198;5.732;2022-08-19T05:53:50;98996.91;;;29.15;40.35
67341;BME280;54227;45.198;5.732;2022-08-19T05:56:16;98999.31;;;29.16;40.63
67341;BME280;54227;45.198;5.732;2022-08-19T05:58:44;98998.50;;;29.16;40.65
67341;BME280;54227;45.198;5.732;2022-08-19T06:01:13;98991.72;;;29.13;40.90
67341;BME280;54227;45.198;5.732;2022-08-19T06:03:39;99006.97;;;28.99;40.93
67341;BME280;54227;45.198;5.732;2022-08-19T06:06:06;99003.22;;;28.86;41.29
67341;BME280;54227;45.198;5.732;2022-08-19T06:08:33;98992.53;;;28.65;41.20
67341;BME280;54227;45.198;5.732;2022-08-19T06:11:12;99004.47;;;28.52;42.00
67341;BME280;54227;45.198;5.732;2022-08-19T06:13:38;99011.56;;;28.41;42.22
67341;BME280;54227;45.198;5.732;2022-08-19T06:16:03;99009.69;;;28.34;42.25
67341;BME280;54227;45.198;5.732;2022-08-19T06:18:29;99013.81;;;28.30;42.42
67341;BME280;54227;45.198;5.732;2022-08-19T06:20:55;99020.25;;;28.30;42.57
67341;BME280;54227;45.198;5.732;2022-08-19T06:23:20;99021.88;;;28.28;42.12
67341;BME280;54227;45.198;5.732;2022-08-19T06:25:46;99029.50;;;28.27;42.44
67341;BME280;54227;45.198;5.732;2022-08-19T06:28:12;99042.34;;;28.28;42.35
67341;BME280;54227;45.198;5.732;2022-08-19T06:30:38;99040.72;;;28.31;42.15
67341;BME280;54227;45.198;5.732;2022-08-19T06:33:03;99039.94;;;28.30;42.17
67341;BME280;54227;45.198;5.732;2022-08-19T06:35:28;99046.25;;;28.34;42.10
67341;BME280;54227;45.198;5.732;2022-08-19T06:37:54;99051.88;;;28.34;42.12
67341;BME280;54227;45.198;5.732;2022-08-19T06:40:20;99049.50;;;28.33;42.17
67341;BME280;54227;45.198;5.732;2022-08-19T06:42:46;99052.78;;;28.31;42.21
67341;BME280;54227;45.198;5.732;2022-08-19T06:45:11;99054.34;;;28.32;42.35
67341;BME280;54227;45.198;5.732;2022-08-19T06:47:37;99048.84;;;28.25;42.10
67341;BME280;54227;45.198;5.732;2022-08-19T06:50:02;99054.00;;;28.30;42.14
67341;BME280;54227;45.198;5.732;2022-08-19T06:52:30;99064.03;;;28.31;41.83
67341;BME280;54227;45.198;5.732;2022-08-19T06:54:55;99058.41;;;28.31;41.95
67341;BME280;54227;45.198;5.732;2022-08-19T06:57:23;99058.53;;;28.24;41.95
67341;BME280;54227;45.198;5.732;2022-08-19T06:59:49;99059.22;;;28.28;41.90
67341;BME280;54227;45.198;5.732;2022-08-19T07:02:15;99067.47;;;28.19;42.40
67341;BME280;54227;45.198;5.732;2022-08-19T07:04:41;99060.16;;;28.21;42.50
67341;BME280;54227;45.198;5.732;2022-08-19T07:07:09;99071.69;;;28.27;42.36
67341;BME280;54227;45.198;5.732;2022-08-19T07:09:43;99070.47;;;28.28;42.46
67341;BME280;54227;45.198;5.732;2022-08-19T07:12:12;99066.41;;;28.33;42.44
67341;BME280;54227;45.198;5.732;2022-08-19T07:14:39;99078.28;;;28.40;42.21
67341;BME280;54227;45.198;5.732;2022-08-19T07:17:08;99090.69;;;28.43;42.95
67341;BME280;54227;45.198;5.732;2022-08-19T07:19:35;99095.94;;;28.41;43.50
67341;BME280;54227;45.198;5.732;2022-08-19T07:22:03;99097.28;;;28.36;44.13
67341;BME280;54227;45.198;5.732;2022-08-19T07:24:30;99094.59;;;28.29;44.71
67341;BME280;54227;45.198;5.732;2022-08-19T07:26:58;99096.22;;;28.27;45.38
67341;BME280;54227;45.198;5.732;2022-08-19T07:29:26;99093.13;;;28.21;45.14
67341;BME280;54227;45.198;5.732;2022-08-19T07:31:53;99098.84;;;28.17;45.09
67341;BME280;54227;45.198;5.732;2022-08-19T07:34:21;99097.41;;;28.09;46.07
67341;BME280;54227;45.198;5.732;2022-08-19T07:36:46;99094.63;;;28.06;46.04
67341;BME280;54227;45.198;5.732;2022-08-19T07:39:18;99094.78;;;27.98;45.71
67341;BME280;54227;45.198;5.732;2022-08-19T07:41:44;99089.72;;;27.90;46.24
67341;BME280;54227;45.198;5.732;2022-08-19T07:44:11;99098.53;;;27.92;45.87
67341;BME280;54227;45.198;5.732;2022-08-19T07:46:41;99094.91;;;27.91;45.51
67341;BME280;54227;45.198;5.732;2022-08-19T07:49:07;99102.41;;;27.98;45.23
67341;BME280;54227;45.198;5.732;2022-08-19T07:51:34;99114.41;;;28.02;44.82
67341;BME280;54227;45.198;5.732;2022-08-19T07:53:59;99113.19;;;28.03;44.18
67341;BME280;54227;45.198;5.732;2022-08-19T07:56:25;99099.91;;;28.04;44.03
67341;BME280;54227;45.198;5.732;2022-08-19T07:58:52;99098.25;;;28.06;43.33
67341;BME280;54227;45.198;5.732;2022-08-19T08:01:22;99098.19;;;28.10;42.98
67341;BME280;54227;45.198;5.732;2022-08-19T08:03:50;99107.06;;;28.08;42.76
67341;BME280;54227;45.198;5.732;2022-08-19T08:06:34;99095.81;;;28.08;42.45
67341;BME280;54227;45.198;5.732;2022-08-19T08:09:29;99098.97;;;28.10;42.19
67341;BME280;54227;45.198;5.732;2022-08-19T08:11:57;99104.59;;;28.10;42.11
67341;BME280;54227;45.198;5.732;2022-08-19T08:14:27;99106.13;;;28.15;42.12
67341;BME280;54227;45.198;5.732;2022-08-19T08:16:55;99109.28;;;28.17;42.06
67341;BME280;54227;45.198;5.732;2022-08-19T08:19:23;99105.59;;;28.20;41.96
67341;BME280;54227;45.198;5.732;2022-08-19T08:21:51;99106.78;;;28.22;41.81
67341;BME280;54227;45.198;5.732;2022-08-19T08:24:17;99108.34;;;28.23;41.69
67341;BME280;54227;45.198;5.732;2022-08-19T08:26:43;99116.50;;;28.18;41.92
67341;BME280;54227;45.198;5.732;2022-08-19T08:29:13;99113.69;;;28.18;41.92
67341;BME280;54227;45.198;5.732;2022-08-19T08:31:40;99120.53;;;28.17;41.90
67341;BME280;54227;45.198;5.732;2022-08-19T08:34:06;99125.13;;;28.27;41.71
67341;BME280;54227;45.198;5.732;2022-08-19T08:36:32;99114.66;;;28.31;41.60
67341;BME280;54227;45.198;5.732;2022-08-19T08:38:59;99111.75;;;28.35;41.61
67341;BME280;54227;45.198;5.732;2022-08-19T08:41:40;99115.72;;;28.37;41.27
67341;BME280;54227;45.198;5.732;2022-08-19T08:47:00;99130.50;;;28.41;40.84
67341;BME280;54227;45.198;5.732;2022-08-19T08:49:53;99130.06;;;28.43;40.71
67341;BME280;54227;45.198;5.732;2022-08-19T08:52:28;99128.06;;;28.43;40.55
67341;BME280;54227;45.198;5.732;2022-08-19T08:54:55;99126.91;;;28.41;40.32
67341;BME280;54227;45.198;5.732;2022-08-19T08:57:36;99120.47;;;28.40;40.12
67341;BME280;54227;45.198;5.732;2022-08-19T09:00:07;99134.91;;;28.42;39.89
67341;BME280;54227;45.198;5.732;2022-08-19T09:02:36;99130.44;;;28.45;39.58
67341;BME280;54227;45.198;5.732;2022-08-19T09:05:01;99130.88;;;28.43;39.47
67341;BME280;54227;45.198;5.732;2022-08-19T09:07:50;99128.06;;;28.43;39.02
67341;BME280;54227;45.198;5.732;2022-08-19T09:10:28;99142.13;;;28.43;39.05
67341;BME280;54227;45.198;5.732;2022-08-19T09:13:04;99136.50;;;28.43;39.03
67341;BME280;54227;45.198;5.732;2022-08-19T09:15:36;99136.50;;;28.43;38.92
67341;BME280;54227;45.198;5.732;2022-08-19T09:18:04;99140.91;;;28.44;38.91
67341;BME280;54227;45.198;5.732;2022-08-19T09:20:30;99141.31;;;28.43;38.69
67341;BME280;54227;45.198;5.732;2022-08-19T09:22:57;99150.13;;;28.45;38.68
67341;BME280;54227;45.198;5.732;2022-08-19T09:25:24;99152.56;;;28.43;38.57
67341;BME280;54227;45.198;5.732;2022-08-19T09:27:51;99152.22;;;28.41;38.38
67341;BME280;54227;45.198;5.732;2022-08-19T09:30:24;99154.59;;;28.42;38.13
67341;BME280;54227;45.198;5.732;2022-08-19T09:32:51;99150.19;;;28.41;38.14
67341;BME280;54227;45.198;5.732;2022-08-19T09:35:21;99144.22;;;28.39;38.09
67341;BME280;54227;45.198;5.732;2022-08-19T09:37:48;99161.09;;;28.39;38.08
67341;BME280;54227;45.198;5.732;2022-08-19T09:40:14;99148.41;;;28.31;38.36
67341;BME280;54227;45.198;5.732;2022-08-19T09:42:40;99151.69;;;28.26;38.76
67341;BME280;54227;45.198;5.732;2022-08-19T09:45:09;99153.66;;;28.29;38.80
67341;BME280;54227;45.198;5.732;2022-08-19T09:47:35;99155.28;;;28.27;39.23
67341;BME280;54227;45.198;5.732;2022-08-19T09:50:04;99166.09;;;28.28;39.30
67341;BME280;54227;45.198;5.732;2022-08-19T09:52:30;99153.59;;;28.33;39.32
67341;BME280;54227;45.198;5.732;2022-08-19T09:54:56;99157.19;;;28.33;39.27
67341;BME280;54227;45.198;5.732;2022-08-19T09:57:21;99164.34;;;28.38;39.49
67341;BME280;54227;45.198;5.732;2022-08-19T09:59:47;99165.28;;;28.31;39.53
67341;BME280;54227;45.198;5.732;2022-08-19T10:02:13;99170.41;;;28.36;39.57
67341;BME280;54227;45.198;5.732;2022-08-19T10:04:38;99178.72;;;28.43;39.50
67341;BME280;54227;45.198;5.732;2022-08-19T10:07:22;99166.22;;;28.44;39.08
67341;BME280;54227;45.198;5.732;2022-08-19T10:09:48;99165.78;;;28.46;39.19
67341;BME280;54227;45.198;5.732;2022-08-19T10:12:13;99165.00;;;28.45;39.07
67341;BME280;54227;45.198;5.732;2022-08-19T10:14:40;99154.88;;;28.48;38.94
67341;BME280;54227;45.198;5.732;2022-08-19T10:17:06;99161.69;;;28.50;38.79
67341;BME280;54227;45.198;5.732;2022-08-19T10:19:32;99167.72;;;28.49;38.73
67341;BME280;54227;45.198;5.732;2022-08-19T10:22:04;99164.91;;;28.49;38.81
67341;BME280;54227;45.198;5.732;2022-08-19T10:24:30;99160.94;;;28.46;38.88
67341;BME280;54227;45.198;5.732;2022-08-19T10:26:56;99173.28;;;28.52;38.82
67341;BME280;54227;45.198;5.732;2022-08-19T10:29:21;99164.25;;;28.41;38.94
67341;BME280;54227;45.198;5.732;2022-08-19T10:31:47;99175.50;;;28.41;39.08
67341;BME280;54227;45.198;5.732;2022-08-19T10:34:12;99165.19;;;28.35;39.19
67341;BME280;54227;45.198;5.732;2022-08-19T10:36:38;99172.84;;;28.34;39.25
67341;BME280;54227;45.198;5.732;2022-08-19T10:39:06;99168.56;;;28.26;39.36
67341;BME280;54227;45.198;5.732;2022-08-19T10:41:36;99176.56;;;28.28;39.42
67341;BME280;54227;45.198;5.732;2022-08-19T10:44:10;99178.97;;;28.29;39.45
67341;BME280;54227;45.198;5.732;2022-08-19T10:46:38;99175.84;;;28.23;39.51
67341;BME280;54227;45.198;5.732;2022-08-19T10:49:05;99181.19;;;28.18;39.82
67341;BME280;54227;45.198;5.732;2022-08-19T10:51:32;99179.94;;;28.19;39.75
67341;BME280;54227;45.198;5.732;2022-08-19T10:54:16;99180.03;;;28.15;39.93
67341;BME280;54227;45.198;5.732;2022-08-19T10:56:42;99180.75;;;28.19;39.95
67341;BME280;54227;45.198;5.732;2022-08-19T10:59:25;99187.91;;;28.24;39.81
67341;BME280;54227;45.198;5.732;2022-08-19T11:01:53;99196.78;;;28.22;40.00
67341;BME280;54227;45.198;5.732;2022-08-19T11:04:19;99184.34;;;28.20;40.05
67341;BME280;54227;45.198;5.732;2022-08-19T11:06:47;99189.63;;;28.18;40.39
67341;BME280;54227;45.198;5.732;2022-08-19T11:09:15;99192.44;;;28.18;40.08
67341;BME280;54227;45.198;5.732;2022-08-19T11:11:41;99186.31;;;28.23;40.07
67341;BME280;54227;45.198;5.732;2022-08-19T11:14:12;99192.28;;;28.25;40.06
67341;BME280;54227;45.198;5.732;2022-08-19T11:16:39;99186.31;;;28.23;40.23
67341;BME280;54227;45.198;5.732;2022-08-19T11:19:06;99197.47;;;28.27;40.28
67341;BME280;54227;45.198;5.732;2022-08-19T11:21:35;99194.22;;;28.28;40.16
67341;BME280;54227;45.198;5.732;2022-08-19T11:24:06;99197.91;;;28.25;39.92
67341;BME280;54227;45.198;5.732;2022-08-19T11:26:33;99192.63;;;28.31;40.43
67341;BME280;54227;45.198;5.732;2022-08-19T11:28:59;99195.47;;;28.27;40.12
67341;BME280;54227;45.198;5.732;2022-08-19T11:31:29;99194.66;;;28.27;40.28
67341;BME280;54227;45.198;5.732;2022-08-19T11:34:00;99187.91;;;28.24;40.27
67341;BME280;54227;45.198;5.732;2022-08-19T11:36:27;99201.22;;;28.20;40.62
67341;BME280;54227;45.198;5.732;2022-08-19T11:38:53;99197.69;;;28.16;40.71
67341;BME280;54227;45.198;5.732;2022-08-19T11:41:20;99198.06;;;28.18;40.61
67341;BME280;54227;45.198;5.732;2022-08-19T11:43:48;99196.81;;;28.19;40.61
67341;BME280;54227;45.198;5.732;2022-08-19T11:46:16;99195.97;;;28.22;40.45
67341;BME280;54227;45.198;5.732;2022-08-19T11:48:42;99195.91;;;28.25;40.48
67341;BME280;54227;45.198;5.732;2022-08-19T11:51:11;99198.72;;;28.25;40.54
67341;BME280;54227;45.198;5.732;2022-08-19T11:53:38;99202.31;;;28.26;40.48
67341;BME280;54227;45.198;5.732;2022-08-19T11:56:04;99196.78;;;28.22;40.47
67341;BME280;54227;45.198;5.732;2022-08-19T11:58:30;99201.59;;;28.22;40.50
67341;BME280;54227;45.198;5.732;2022-08-19T12:00:56;99205.22;;;28.22;40.69
67341;BME280;54227;45.198;5.732;2022-08-19T12:03:22;99208.03;;;28.22;40.77
67341;BME280;54227;45.198;5.732;2022-08-19T12:05:48;99194.38;;;28.21;40.59
67341;BME280;54227;45.198;5.732;2022-08-19T12:08:15;99202.31;;;28.26;40.64
67341;BME280;54227;45.198;5.732;2022-08-19T12:10:42;99191.41;;;28.28;40.60
67341;BME280;54227;45.198;5.732;2022-08-19T12:13:09;99195.47;;;28.27;41.03
67341;BME280;54227;45.198;5.732;2022-08-19T12:15:37;99201.84;;;28.31;40.73
67341;BME280;54227;45.198;5.732;2022-08-19T12:18:04;99195.47;;;28.27;40.69
67341;BME280;54227;45.198;5.732;2022-08-19T12:20:30;99187.47;;;28.25;40.88
67341;BME280;54227;45.198;5.732;2022-08-19T12:22:55;99201.97;;;28.24;40.86
67341;BME280;54227;45.198;5.732;2022-08-19T12:25:21;99190.41;;;28.18;40.91
67341;BME280;54227;45.198;5.732;2022-08-19T12:27:47;99201.97;;;28.24;40.98
67341;BME280;54227;45.198;5.732;2022-08-19T12:30:13;99204.53;;;28.38;40.57
67341;BME280;54227;45.198;5.732;2022-08-19T12:32:39;99205.88;;;28.50;40.27
67341;BME280;54227;45.198;5.732;2022-08-19T12:35:06;99194.13;;;28.55;40.15
67341;BME280;54227;45.198;5.732;2022-08-19T12:37:33;99205.59;;;28.64;40.04
67341;BME280;54227;45.198;5.732;2022-08-19T12:39:59;99199.81;;;28.71;40.09
67341;BME280;54227;45.198;5.732;2022-08-19T12:42:24;99200.19;;;28.73;39.95
67341;BME280;54227;45.198;5.732;2022-08-19T12:44:50;99210.13;;;28.78;39.81
67341;BME280;54227;45.198;5.732;2022-08-19T12:47:17;99204.88;;;28.80;39.91
67341;BME280;54227;45.198;5.732;2022-08-19T12:49:42;99214.03;;;28.84;39.90
67341;BME280;54227;45.198;5.732;2022-08-19T12:52:09;99207.97;;;28.86;39.66
67341;BME280;54227;45.198;5.732;2022-08-19T12:54:37;99205.94;;;28.86;39.60
67341;BME280;54227;45.198;5.732;2022-08-19T12:57:07;99213.53;;;28.89;39.77
67341;BME280;54227;45.198;5.732;2022-08-19T12:59:34;99207.91;;;28.89;39.69
67341;BME280;54227;45.198;5.732;2022-08-19T13:02:01;99216.28;;;28.93;39.63
67341;BME280;54227;45.198;5.732;2022-08-19T13:04:26;99224.31;;;28.94;39.68
67341;BME280;54227;45.198;5.732;2022-08-19T13:06:52;99217.06;;;28.93;39.33